sensor_id;sensor_type;location;lat;lon;timestamp;P1;durP1;ratioP1;P2;durP2;ratioP2
58338;SDS011;68636;52.704;6.536;2023-06-22T00:00:50;32.38;;;20.65;;
58338;SDS011;68636;52.704;6.536;2023-06-22T00:03:17;33.25;;;19.33;;
58338;SDS011;68636;52.704;6.536;2023-06-22T00:05:44;33.88;;;21.48;;
58338;SDS011;68636;52.704;6.536;2023-06-22T00:08:11;33.63;;;21.17;;
58338;SDS011;68636;52.704;6.536;2023-06-22T00:10:37;34.03;;;22.40;;
58338;SDS011;68636;52.704;6.536;2023-06-22T00:13:02;34.87;;;22.00;;
58338;SDS011;68636;52.704;6.536;2023-06-22T00:15:28;39.15;;;21.92;;
58338;SDS011;68636;52.704;6.536;2023-06-22T00:17:54;37.00;;;21.93;;
58338;SDS011;68636;52.704;6.536;2023-06-22T00:20:22;34.70;;;21.42;;
58338;SDS011;68636;52.704;6.536;2023-06-22T00:22:52;34.42;;;21.58;;
58338;SDS011;68636;52.704;6.536;2023-06-22T00:25:22;36.72;;;22.23;;
58338;SDS011;68636;52.704;6.536;2023-06-22T00:27:48;37.13;;;22.93;;
58338;SDS011;68636;52.704;6.536;2023-06-22T00:30:15;36.67;;;22.90;;
58338;SDS011;68636;52.704;6.536;2023-06-22T00:32:41;37.97;;;23.15;;
58338;SDS011;68636;52.704;6.536;2023-06-22T00:35:07;41.33;;;23.98;;
58338;SDS011;68636;52.704;6.536;2023-06-22T00:37:35;37.05;;;23.60;;
58338;SDS011;68636;52.704;6.536;2023-06-22T00:40:01;39.10;;;24.90;;
58338;SDS011;68636;52.704;6.536;2023-06-22T00:42:28;38.25;;;23.98;;
58338;SDS011;68636;52.704;6.536;2023-06-22T00:44:54;37.27;;;24.53;;
58338;SDS011;68636;52.704;6.536;2023-06-22T00:47:20;38.70;;;24.87;;
58338;SDS011;68636;52.704;6.536;2023-06-22T00:49:47;41.45;;;25.10;;
58338;SDS011;68636;52.704;6.536;2023-06-22T00:52:16;40.50;;;25.25;;
58338;SDS011;68636;52.704;6.536;2023-06-22T00:54:46;37.30;;;24.25;;
58338;SDS011;68636;52.704;6.536;2023-06-22T00:57:16;47.15;;;27.98;;
58338;SDS011;68636;52.704;6.536;2023-06-22T00:59:44;49.30;;;29.75;;
58338;SDS011;68636;52.704;6.536;2023-06-22T01:04:37;49.05;;;29.38;;
58338;SDS011;68636;52.704;6.536;2023-06-22T01:12:44;49.30;;;29.90;;
58338;SDS011;68636;52.704;6.536;2023-06-22T01:15:28;49.42;;;31.23;;
58338;SDS011;68636;52.704;6.536;2023-06-22T01:17:58;50.72;;;31.42;;
58338;SDS011;68636;52.704;6.536;2023-06-22T01:20:25;55.95;;;31.67;;
58338;SDS011;68636;52.704;6.536;2023-06-22T01:25:43;51.22;;;31.70;;
58338;SDS011;68636;52.704;6.536;2023-06-22T01:31:00;55.28;;;32.28;;
58338;SDS011;68636;52.704;6.536;2023-06-22T01:33:31;52.05;;;31.60;;
58338;SDS011;68636;52.704;6.536;2023-06-22T01:35:59;55.95;;;34.83;;
58338;SDS011;68636;52.704;6.536;2023-06-22T01:38:26;53.03;;;32.97;;
58338;SDS011;68636;52.704;6.536;2023-06-22T01:40:54;52.15;;;31.55;;
58338;SDS011;68636;52.704;6.536;2023-06-22T01:43:21;52.35;;;31.20;;
58338;SDS011;68636;52.704;6.536;2023-06-22T01:45:49;56.17;;;32.70;;
58338;SDS011;68636;52.704;6.536;2023-06-22T01:48:15;50.67;;;30.70;;
58338;SDS011;68636;52.704;6.536;2023-06-22T01:50:42;52.20;;;30.85;;
58338;SDS011;68636;52.704;6.536;2023-06-22T01:53:08;53.90;;;31.67;;
58338;SDS011;68636;52.704;6.536;2023-06-22T01:55:34;54.47;;;32.20;;
58338;SDS011;68636;52.704;6.536;2023-06-22T01:58:00;55.83;;;31.07;;
58338;SDS011;68636;52.704;6.536;2023-06-22T02:00:26;59.40;;;33.90;;
58338;SDS011;68636;52.704;6.536;2023-06-22T02:02:58;58.15;;;32.75;;
58338;SDS011;68636;52.704;6.536;2023-06-22T02:05:38;63.28;;;33.85;;
58338;SDS011;68636;52.704;6.536;2023-06-22T02:11:10;59.22;;;31.95;;
58338;SDS011;68636;52.704;6.536;2023-06-22T02:13:38;56.60;;;31.70;;
58338;SDS011;68636;52.704;6.536;2023-06-22T02:16:08;52.63;;;31.50;;
58338;SDS011;68636;52.704;6.536;2023-06-22T02:18:35;53.28;;;32.50;;
58338;SDS011;68636;52.704;6.536;2023-06-22T02:21:02;50.45;;;31.35;;
58338;SDS011;68636;52.704;6.536;2023-06-22T02:23:28;56.15;;;30.13;;
58338;SDS011;68636;52.704;6.536;2023-06-22T02:25:54;56.60;;;32.43;;
58338;SDS011;68636;52.704;6.536;2023-06-22T02:28:19;56.80;;;34.10;;
58338;SDS011;68636;52.704;6.536;2023-06-22T02:30:45;58.70;;;32.93;;
58338;SDS011;68636;52.704;6.536;2023-06-22T02:33:11;52.25;;;32.15;;
58338;SDS011;68636;52.704;6.536;2023-06-22T02:35:37;53.07;;;32.10;;
58338;SDS011;68636;52.704;6.536;2023-06-22T02:38:03;50.70;;;30.27;;
58338;SDS011;68636;52.704;6.536;2023-06-22T02:40:29;53.22;;;30.80;;
58338;SDS011;68636;52.704;6.536;2023-06-22T02:42:56;53.50;;;31.77;;
58338;SDS011;68636;52.704;6.536;2023-06-22T02:45:26;56.42;;;31.50;;
58338;SDS011;68636;52.704;6.536;2023-06-22T02:47:52;50.10;;;29.60;;
58338;SDS011;68636;52.704;6.536;2023-06-22T02:55:29;49.63;;;30.40;;
58338;SDS011;68636;52.704;6.536;2023-06-22T02:57:55;53.63;;;33.20;;
58338;SDS011;68636;52.704;6.536;2023-06-22T03:00:22;56.85;;;34.25;;
58338;SDS011;68636;52.704;6.536;2023-06-22T03:02:48;58.73;;;33.47;;
58338;SDS011;68636;52.704;6.536;2023-06-22T03:05:14;54.78;;;33.50;;
58338;SDS011;68636;52.704;6.536;2023-06-22T03:07:43;61.85;;;34.70;;
58338;SDS011;68636;52.704;6.536;2023-06-22T03:12:39;59.17;;;35.20;;
58338;SDS011;68636;52.704;6.536;2023-06-22T03:15:06;58.78;;;32.42;;
58338;SDS011;68636;52.704;6.536;2023-06-22T03:17:34;62.17;;;35.08;;
58338;SDS011;68636;52.704;6.536;2023-06-22T03:20:04;60.65;;;33.97;;
58338;SDS011;68636;52.704;6.536;2023-06-22T03:22:43;59.90;;;34.42;;
58338;SDS011;68636;52.704;6.536;2023-06-22T03:25:09;59.42;;;34.30;;
58338;SDS011;68636;52.704;6.536;2023-06-22T03:27:41;59.33;;;36.25;;
58338;SDS011;68636;52.704;6.536;2023-06-22T03:30:09;58.30;;;34.38;;
58338;SDS011;68636;52.704;6.536;2023-06-22T03:32:36;57.20;;;34.83;;
58338;SDS011;68636;52.704;6.536;2023-06-22T03:35:02;63.23;;;36.83;;
58338;SDS011;68636;52.704;6.536;2023-06-22T03:37:28;61.15;;;36.22;;
58338;SDS011;68636;52.704;6.536;2023-06-22T03:39:54;64.28;;;36.03;;
58338;SDS011;68636;52.704;6.536;2023-06-22T03:42:20;53.35;;;34.03;;
58338;SDS011;68636;52.704;6.536;2023-06-22T03:44:46;57.27;;;34.80;;
58338;SDS011;68636;52.704;6.536;2023-06-22T03:47:12;59.78;;;35.03;;
58338;SDS011;68636;52.704;6.536;2023-06-22T03:49:38;66.00;;;36.27;;
58338;SDS011;68636;52.704;6.536;2023-06-22T03:52:04;66.03;;;36.20;;
58338;SDS011;68636;52.704;6.536;2023-06-22T03:54:30;59.83;;;36.50;;
58338;SDS011;68636;52.704;6.536;2023-06-22T03:56:57;66.03;;;36.92;;
58338;SDS011;68636;52.704;6.536;2023-06-22T03:59:23;61.92;;;35.45;;
58338;SDS011;68636;52.704;6.536;2023-06-22T04:01:49;59.60;;;36.65;;
58338;SDS011;68636;52.704;6.536;2023-06-22T04:04:16;62.15;;;36.85;;
58338;SDS011;68636;52.704;6.536;2023-06-22T04:06:42;67.45;;;37.45;;
58338;SDS011;68636;52.704;6.536;2023-06-22T04:09:08;64.60;;;36.80;;
58338;SDS011;68636;52.704;6.536;2023-06-22T04:11:34;66.25;;;38.80;;
58338;SDS011;68636;52.704;6.536;2023-06-22T04:13:59;58.77;;;35.50;;
58338;SDS011;68636;52.704;6.536;2023-06-22T04:16:25;56.72;;;34.58;;
58338;SDS011;68636;52.704;6.536;2023-06-22T04:18:51;63.83;;;37.40;;
58338;SDS011;68636;52.704;6.536;2023-06-22T04:21:17;62.45;;;35.20;;
58338;SDS011;68636;52.704;6.536;2023-06-22T04:23:44;54.63;;;34.67;;
58338;SDS011;68636;52.704;6.536;2023-06-22T04:26:11;61.17;;;35.75;;
58338;SDS011;68636;52.704;6.536;2023-06-22T04:28:38;62.65;;;38.00;;
58338;SDS011;68636;52.704;6.536;2023-06-22T04:31:04;61.20;;;35.10;;
58338;SDS011;68636;52.704;6.536;2023-06-22T04:33:30;56.65;;;34.53;;
58338;SDS011;68636;52.704;6.536;2023-06-22T04:35:56;57.03;;;34.70;;
58338;SDS011;68636;52.704;6.536;2023-06-22T04:38:29;56.45;;;34.35;;
58338;SDS011;68636;52.704;6.536;2023-06-22T04:40:58;57.38;;;34.28;;
58338;SDS011;68636;52.704;6.536;2023-06-22T04:43:24;55.95;;;35.42;;
58338;SDS011;68636;52.704;6.536;2023-06-22T04:45:49;61.83;;;36.10;;
58338;SDS011;68636;52.704;6.536;2023-06-22T04:48:17;60.78;;;37.45;;
58338;SDS011;68636;52.704;6.536;2023-06-22T04:50:43;61.30;;;37.33;;
58338;SDS011;68636;52.704;6.536;2023-06-22T04:53:09;63.67;;;36.75;;
58338;SDS011;68636;52.704;6.536;2023-06-22T04:55:37;66.43;;;37.15;;
58338;SDS011;68636;52.704;6.536;2023-06-22T04:58:06;60.17;;;36.58;;
58338;SDS011;68636;52.704;6.536;2023-06-22T05:00:33;66.22;;;40.13;;
58338;SDS011;68636;52.704;6.536;2023-06-22T05:03:01;63.47;;;37.67;;
58338;SDS011;68636;52.704;6.536;2023-06-22T05:05:28;60.22;;;36.72;;
58338;SDS011;68636;52.704;6.536;2023-06-22T05:07:56;61.25;;;38.35;;
58338;SDS011;68636;52.704;6.536;2023-06-22T05:10:24;58.92;;;34.97;;
58338;SDS011;68636;52.704;6.536;2023-06-22T05:12:51;61.72;;;36.95;;
58338;SDS011;68636;52.704;6.536;2023-06-22T05:15:16;59.72;;;36.38;;
58338;SDS011;68636;52.704;6.536;2023-06-22T05:17:44;63.08;;;36.83;;
58338;SDS011;68636;52.704;6.536;2023-06-22T05:20:11;59.77;;;35.20;;
58338;SDS011;68636;52.704;6.536;2023-06-22T05:22:38;59.55;;;36.50;;
58338;SDS011;68636;52.704;6.536;2023-06-22T05:25:05;53.70;;;33.65;;
58338;SDS011;68636;52.704;6.536;2023-06-22T05:27:33;62.80;;;33.85;;
58338;SDS011;68636;52.704;6.536;2023-06-22T05:30:04;55.13;;;33.78;;
58338;SDS011;68636;52.704;6.536;2023-06-22T05:32:34;48.80;;;32.30;;
58338;SDS011;68636;52.704;6.536;2023-06-22T05:35:00;49.03;;;31.90;;
58338;SDS011;68636;52.704;6.536;2023-06-22T05:37:25;46.73;;;29.77;;
58338;SDS011;68636;52.704;6.536;2023-06-22T05:39:51;47.03;;;29.70;;
58338;SDS011;68636;52.704;6.536;2023-06-22T05:42:17;48.75;;;32.20;;
58338;SDS011;68636;52.704;6.536;2023-06-22T05:44:43;48.63;;;32.42;;
58338;SDS011;68636;52.704;6.536;2023-06-22T05:47:08;49.42;;;29.75;;
58338;SDS011;68636;52.704;6.536;2023-06-22T05:49:34;48.87;;;31.97;;
58338;SDS011;68636;52.704;6.536;2023-06-22T05:52:00;46.50;;;31.23;;
58338;SDS011;68636;52.704;6.536;2023-06-22T05:54:29;48.20;;;31.10;;
58338;SDS011;68636;52.704;6.536;2023-06-22T05:56:55;52.20;;;30.67;;
58338;SDS011;68636;52.704;6.536;2023-06-22T05:59:21;49.43;;;33.67;;
58338;SDS011;68636;52.704;6.536;2023-06-22T06:01:46;46.13;;;31.40;;
58338;SDS011;68636;52.704;6.536;2023-06-22T06:04:18;48.28;;;31.10;;
58338;SDS011;68636;52.704;6.536;2023-06-22T06:06:44;43.05;;;29.65;;
58338;SDS011;68636;52.704;6.536;2023-06-22T06:09:10;43.33;;;28.97;;
58338;SDS011;68636;52.704;6.536;2023-06-22T06:11:36;43.17;;;28.45;;
58338;SDS011;68636;52.704;6.536;2023-06-22T06:14:03;44.28;;;27.83;;
58338;SDS011;68636;52.704;6.536;2023-06-22T06:16:28;37.10;;;24.90;;
58338;SDS011;68636;52.704;6.536;2023-06-22T06:18:54;36.30;;;26.33;;
58338;SDS011;68636;52.704;6.536;2023-06-22T06:21:21;37.35;;;24.13;;
58338;SDS011;68636;52.704;6.536;2023-06-22T06:23:47;34.75;;;23.50;;
58338;SDS011;68636;52.704;6.536;2023-06-22T06:26:13;36.10;;;22.87;;
58338;SDS011;68636;52.704;6.536;2023-06-22T06:28:41;32.30;;;23.05;;
58338;SDS011;68636;52.704;6.536;2023-06-22T06:31:08;33.58;;;23.65;;
58338;SDS011;68636;52.704;6.536;2023-06-22T06:33:34;29.90;;;20.80;;
58338;SDS011;68636;52.704;6.536;2023-06-22T06:36:00;28.10;;;19.98;;
58338;SDS011;68636;52.704;6.536;2023-06-22T06:38:28;29.67;;;20.15;;
58338;SDS011;68636;52.704;6.536;2023-06-22T06:43:20;26.87;;;17.93;;
58338;SDS011;68636;52.704;6.536;2023-06-22T06:45:46;26.80;;;18.60;;
58338;SDS011;68636;52.704;6.536;2023-06-22T06:48:12;26.27;;;17.60;;
58338;SDS011;68636;52.704;6.536;2023-06-22T06:50:38;24.60;;;17.73;;
58338;SDS011;68636;52.704;6.536;2023-06-22T06:53:03;25.33;;;16.83;;
58338;SDS011;68636;52.704;6.536;2023-06-22T06:55:30;25.20;;;17.80;;
58338;SDS011;68636;52.704;6.536;2023-06-22T06:57:58;24.30;;;16.42;;
58338;SDS011;68636;52.704;6.536;2023-06-22T07:02:51;23.10;;;15.07;;
58338;SDS011;68636;52.704;6.536;2023-06-22T07:05:16;23.70;;;14.93;;
58338;SDS011;68636;52.704;6.536;2023-06-22T07:07:42;20.93;;;14.53;;
58338;SDS011;68636;52.704;6.536;2023-06-22T07:10:08;21.50;;;14.47;;
58338;SDS011;68636;52.704;6.536;2023-06-22T07:12:35;21.95;;;14.43;;
58338;SDS011;68636;52.704;6.536;2023-06-22T07:15:04;20.77;;;14.15;;
58338;SDS011;68636;52.704;6.536;2023-06-22T07:17:33;19.02;;;12.75;;
58338;SDS011;68636;52.704;6.536;2023-06-22T07:19:59;17.67;;;12.38;;
58338;SDS011;68636;52.704;6.536;2023-06-22T07:22:26;19.90;;;12.32;;
58338;SDS011;68636;52.704;6.536;2023-06-22T07:24:57;16.92;;;10.50;;
58338;SDS011;68636;52.704;6.536;2023-06-22T07:27:23;17.05;;;10.05;;
58338;SDS011;68636;52.704;6.536;2023-06-22T07:29:50;17.27;;;9.88;;
58338;SDS011;68636;52.704;6.536;2023-06-22T07:32:16;17.07;;;9.87;;
58338;SDS011;68636;52.704;6.536;2023-06-22T07:34:41;17.60;;;10.27;;
58338;SDS011;68636;52.704;6.536;2023-06-22T07:37:08;13.43;;;9.63;;
58338;SDS011;68636;52.704;6.536;2023-06-22T07:39:34;15.63;;;10.40;;
58338;SDS011;68636;52.704;6.536;2023-06-22T07:42:00;18.30;;;10.03;;
58338;SDS011;68636;52.704;6.536;2023-06-22T07:44:25;16.13;;;10.07;;
58338;SDS011;68636;52.704;6.536;2023-06-22T07:46:51;14.43;;;10.07;;
58338;SDS011;68636;52.704;6.536;2023-06-22T07:49:17;14.13;;;9.77;;
58338;SDS011;68636;52.704;6.536;2023-06-22T07:51:43;14.50;;;10.10;;
58338;SDS011;68636;52.704;6.536;2023-06-22T07:54:09;15.67;;;10.63;;
58338;SDS011;68636;52.704;6.536;2023-06-22T07:56:36;16.17;;;8.77;;
58338;SDS011;68636;52.704;6.536;2023-06-22T07:59:02;15.23;;;9.15;;
58338;SDS011;68636;52.704;6.536;2023-06-22T08:01:29;12.55;;;8.75;;
58338;SDS011;68636;52.704;6.536;2023-06-22T08:03:54;18.05;;;10.10;;
58338;SDS011;68636;52.704;6.536;2023-06-22T08:06:20;13.07;;;9.20;;
58338;SDS011;68636;52.704;6.536;2023-06-22T08:08:46;17.43;;;8.63;;
58338;SDS011;68636;52.704;6.536;2023-06-22T08:11:14;13.93;;;8.00;;
58338;SDS011;68636;52.704;6.536;2023-06-22T08:13:39;16.03;;;8.80;;
58338;SDS011;68636;52.704;6.536;2023-06-22T08:16:05;14.63;;;9.17;;
58338;SDS011;68636;52.704;6.536;2023-06-22T08:18:32;14.75;;;9.95;;
58338;SDS011;68636;52.704;6.536;2023-06-22T08:20:58;16.00;;;9.20;;
58338;SDS011;68636;52.704;6.536;2023-06-22T08:23:24;12.83;;;8.23;;
58338;SDS011;68636;52.704;6.536;2023-06-22T08:25:49;12.90;;;8.27;;
58338;SDS011;68636;52.704;6.536;2023-06-22T08:28:15;13.83;;;8.03;;
58338;SDS011;68636;52.704;6.536;2023-06-22T08:30:41;12.70;;;8.43;;
58338;SDS011;68636;52.704;6.536;2023-06-22T08:33:07;12.87;;;7.93;;
58338;SDS011;68636;52.704;6.536;2023-06-22T08:35:33;12.23;;;7.97;;
58338;SDS011;68636;52.704;6.536;2023-06-22T08:37:58;13.47;;;8.37;;
58338;SDS011;68636;52.704;6.536;2023-06-22T08:40:25;14.80;;;9.80;;
58338;SDS011;68636;52.704;6.536;2023-06-22T08:42:51;12.82;;;8.00;;
58338;SDS011;68636;52.704;6.536;2023-06-22T08:45:17;13.80;;;8.82;;
58338;SDS011;68636;52.704;6.536;2023-06-22T08:47:42;14.90;;;8.70;;
58338;SDS011;68636;52.704;6.536;2023-06-22T08:50:09;12.77;;;8.27;;
58338;SDS011;68636;52.704;6.536;2023-06-22T08:52:36;11.82;;;8.50;;
58338;SDS011;68636;52.704;6.536;2023-06-22T08:55:06;11.40;;;7.65;;
58338;SDS011;68636;52.704;6.536;2023-06-22T08:59:58;14.95;;;8.07;;
58338;SDS011;68636;52.704;6.536;2023-06-22T09:02:27;11.88;;;7.53;;
58338;SDS011;68636;52.704;6.536;2023-06-22T09:04:56;13.95;;;8.10;;
58338;SDS011;68636;52.704;6.536;2023-06-22T09:07:22;11.05;;;7.88;;
58338;SDS011;68636;52.704;6.536;2023-06-22T09:09:49;11.15;;;7.55;;
58338;SDS011;68636;52.704;6.536;2023-06-22T09:12:16;13.35;;;8.75;;
58338;SDS011;68636;52.704;6.536;2023-06-22T09:14:45;12.20;;;8.20;;
58338;SDS011;68636;52.704;6.536;2023-06-22T09:17:12;11.82;;;7.53;;
58338;SDS011;68636;52.704;6.536;2023-06-22T09:19:38;11.90;;;7.38;;
58338;SDS011;68636;52.704;6.536;2023-06-22T09:22:04;13.57;;;8.15;;
58338;SDS011;68636;52.704;6.536;2023-06-22T09:24:31;14.90;;;8.55;;
58338;SDS011;68636;52.704;6.536;2023-06-22T09:26:58;17.08;;;8.85;;
58338;SDS011;68636;52.704;6.536;2023-06-22T09:29:24;15.77;;;9.10;;
58338;SDS011;68636;52.704;6.536;2023-06-22T09:31:49;13.82;;;8.48;;
58338;SDS011;68636;52.704;6.536;2023-06-22T09:34:15;13.97;;;8.50;;
58338;SDS011;68636;52.704;6.536;2023-06-22T09:36:45;13.15;;;9.38;;
58338;SDS011;68636;52.704;6.536;2023-06-22T09:39:11;15.52;;;8.65;;
58338;SDS011;68636;52.704;6.536;2023-06-22T09:41:37;14.83;;;7.83;;
58338;SDS011;68636;52.704;6.536;2023-06-22T09:44:03;11.70;;;7.80;;
58338;SDS011;68636;52.704;6.536;2023-06-22T09:46:29;14.40;;;8.48;;
58338;SDS011;68636;52.704;6.536;2023-06-22T09:48:54;14.67;;;8.40;;
58338;SDS011;68636;52.704;6.536;2023-06-22T09:51:20;12.52;;;7.70;;
58338;SDS011;68636;52.704;6.536;2023-06-22T09:53:47;13.35;;;8.02;;
58338;SDS011;68636;52.704;6.536;2023-06-22T09:56:13;14.77;;;7.70;;
58338;SDS011;68636;52.704;6.536;2023-06-22T09:58:42;15.40;;;8.43;;
58338;SDS011;68636;52.704;6.536;2023-06-22T10:03:35;12.40;;;8.20;;
58338;SDS011;68636;52.704;6.536;2023-06-22T10:06:01;10.57;;;7.82;;
58338;SDS011;68636;52.704;6.536;2023-06-22T10:08:27;10.93;;;7.32;;
58338;SDS011;68636;52.704;6.536;2023-06-22T10:10:53;12.90;;;7.10;;
58338;SDS011;68636;52.704;6.536;2023-06-22T10:13:18;10.73;;;6.43;;
58338;SDS011;68636;52.704;6.536;2023-06-22T10:15:44;10.77;;;7.57;;
58338;SDS011;68636;52.704;6.536;2023-06-22T10:18:16;11.80;;;6.80;;
58338;SDS011;68636;52.704;6.536;2023-06-22T10:20:42;12.50;;;8.25;;
58338;SDS011;68636;52.704;6.536;2023-06-22T10:23:08;12.93;;;7.38;;
58338;SDS011;68636;52.704;6.536;2023-06-22T10:25:34;9.93;;;6.40;;
58338;SDS011;68636;52.704;6.536;2023-06-22T10:28:00;10.00;;;6.47;;
58338;SDS011;68636;52.704;6.536;2023-06-22T10:30:25;13.63;;;7.10;;
58338;SDS011;68636;52.704;6.536;2023-06-22T10:32:51;10.45;;;7.18;;
58338;SDS011;68636;52.704;6.536;2023-06-22T10:35:17;10.60;;;6.60;;
58338;SDS011;68636;52.704;6.536;2023-06-22T10:37:43;9.75;;;6.75;;
58338;SDS011;68636;52.704;6.536;2023-06-22T10:40:10;9.75;;;6.32;;
58338;SDS011;68636;52.704;6.536;2023-06-22T10:42:37;11.20;;;6.53;;
58338;SDS011;68636;52.704;6.536;2023-06-22T10:45:03;9.95;;;6.78;;
58338;SDS011;68636;52.704;6.536;2023-06-22T10:47:29;10.60;;;6.70;;
58338;SDS011;68636;52.704;6.536;2023-06-22T10:49:58;10.17;;;6.20;;
58338;SDS011;68636;52.704;6.536;2023-06-22T10:52:23;14.02;;;6.65;;
58338;SDS011;68636;52.704;6.536;2023-06-22T10:54:49;9.67;;;5.77;;
58338;SDS011;68636;52.704;6.536;2023-06-22T10:57:15;9.52;;;6.22;;
58338;SDS011;68636;52.704;6.536;2023-06-22T10:59:41;8.93;;;5.15;;
58338;SDS011;68636;52.704;6.536;2023-06-22T11:02:06;8.77;;;5.60;;
58338;SDS011;68636;52.704;6.536;2023-06-22T11:04:32;15.47;;;6.10;;
58338;SDS011;68636;52.704;6.536;2023-06-22T11:06:58;10.60;;;6.00;;
58338;SDS011;68636;52.704;6.536;2023-06-22T11:09:23;12.27;;;5.33;;
58338;SDS011;68636;52.704;6.536;2023-06-22T11:11:50;7.18;;;4.45;;
58338;SDS011;68636;52.704;6.536;2023-06-22T11:14:19;10.00;;;5.68;;
58338;SDS011;68636;52.704;6.536;2023-06-22T11:16:45;9.52;;;5.75;;
58338;SDS011;68636;52.704;6.536;2023-06-22T11:19:11;10.95;;;5.00;;
58338;SDS011;68636;52.704;6.536;2023-06-22T11:21:37;9.13;;;5.00;;
58338;SDS011;68636;52.704;6.536;2023-06-22T11:24:03;8.23;;;4.70;;
58338;SDS011;68636;52.704;6.536;2023-06-22T11:26:29;6.53;;;4.07;;
58338;SDS011;68636;52.704;6.536;2023-06-22T11:28:57;9.07;;;4.65;;
58338;SDS011;68636;52.704;6.536;2023-06-22T11:31:23;7.80;;;4.32;;
58338;SDS011;68636;52.704;6.536;2023-06-22T11:33:49;7.65;;;4.05;;
58338;SDS011;68636;52.704;6.536;2023-06-22T11:36:15;12.80;;;6.15;;
58338;SDS011;68636;52.704;6.536;2023-06-22T11:38:42;7.13;;;4.03;;
58338;SDS011;68636;52.704;6.536;2023-06-22T11:43:33;8.75;;;4.80;;
58338;SDS011;68636;52.704;6.536;2023-06-22T11:46:00;16.75;;;5.40;;
58338;SDS011;68636;52.704;6.536;2023-06-22T11:48:27;9.75;;;4.40;;
58338;SDS011;68636;52.704;6.536;2023-06-22T11:50:53;9.27;;;4.73;;
58338;SDS011;68636;52.704;6.536;2023-06-22T11:53:20;8.63;;;5.88;;
58338;SDS011;68636;52.704;6.536;2023-06-22T11:55:46;9.05;;;5.55;;
58338;SDS011;68636;52.704;6.536;2023-06-22T11:58:13;8.20;;;4.50;;
58338;SDS011;68636;52.704;6.536;2023-06-22T12:00:41;11.43;;;5.50;;
58338;SDS011;68636;52.704;6.536;2023-06-22T12:03:07;7.17;;;4.33;;
58338;SDS011;68636;52.704;6.536;2023-06-22T12:05:34;8.50;;;4.75;;
58338;SDS011;68636;52.704;6.536;2023-06-22T12:08:00;6.78;;;4.30;;
58338;SDS011;68636;52.704;6.536;2023-06-22T12:10:26;9.48;;;5.55;;
58338;SDS011;68636;52.704;6.536;2023-06-22T12:12:53;10.05;;;5.43;;
58338;SDS011;68636;52.704;6.536;2023-06-22T12:15:19;9.32;;;5.22;;
58338;SDS011;68636;52.704;6.536;2023-06-22T12:17:45;11.18;;;6.03;;
58338;SDS011;68636;52.704;6.536;2023-06-22T12:20:13;9.93;;;5.75;;
58338;SDS011;68636;52.704;6.536;2023-06-22T12:22:40;9.98;;;6.20;;
58338;SDS011;68636;52.704;6.536;2023-06-22T12:25:07;11.07;;;6.72;;
58338;SDS011;68636;52.704;6.536;2023-06-22T12:27:34;9.07;;;6.15;;
58338;SDS011;68636;52.704;6.536;2023-06-22T12:34:51;10.20;;;6.37;;
58338;SDS011;68636;52.704;6.536;2023-06-22T12:37:17;10.43;;;6.60;;
58338;SDS011;68636;52.704;6.536;2023-06-22T12:39:43;11.60;;;6.40;;
58338;SDS011;68636;52.704;6.536;2023-06-22T12:44:37;10.40;;;6.28;;
58338;SDS011;68636;52.704;6.536;2023-06-22T12:47:04;10.88;;;6.65;;
58338;SDS011;68636;52.704;6.536;2023-06-22T12:49:34;8.45;;;5.80;;
58338;SDS011;68636;52.704;6.536;2023-06-22T12:52:03;11.43;;;6.60;;
58338;SDS011;68636;52.704;6.536;2023-06-22T12:54:33;9.90;;;6.20;;
58338;SDS011;68636;52.704;6.536;2023-06-22T12:56:59;13.13;;;7.10;;
58338;SDS011;68636;52.704;6.536;2023-06-22T12:59:26;11.45;;;7.53;;
58338;SDS011;68636;52.704;6.536;2023-06-22T13:01:52;13.00;;;7.43;;
58338;SDS011;68636;52.704;6.536;2023-06-22T13:04:17;15.30;;;7.47;;
58338;SDS011;68636;52.704;6.536;2023-06-22T13:06:47;11.57;;;7.30;;
58338;SDS011;68636;52.704;6.536;2023-06-22T13:09:13;10.63;;;7.22;;
58338;SDS011;68636;52.704;6.536;2023-06-22T13:11:40;14.25;;;8.35;;
58338;SDS011;68636;52.704;6.536;2023-06-22T13:14:06;13.98;;;8.02;;
58338;SDS011;68636;52.704;6.536;2023-06-22T13:16:31;12.82;;;9.23;;
58338;SDS011;68636;52.704;6.536;2023-06-22T13:18:57;12.50;;;7.75;;
58338;SDS011;68636;52.704;6.536;2023-06-22T13:21:23;14.07;;;8.60;;
58338;SDS011;68636;52.704;6.536;2023-06-22T13:23:49;13.10;;;7.60;;
58338;SDS011;68636;52.704;6.536;2023-06-22T13:26:14;16.15;;;7.70;;
58338;SDS011;68636;52.704;6.536;2023-06-22T13:28:40;14.60;;;8.67;;
58338;SDS011;68636;52.704;6.536;2023-06-22T13:31:06;14.40;;;8.90;;
58338;SDS011;68636;52.704;6.536;2023-06-22T13:33:31;15.20;;;8.83;;
58338;SDS011;68636;52.704;6.536;2023-06-22T13:35:57;15.30;;;7.80;;
58338;SDS011;68636;52.704;6.536;2023-06-22T13:38:23;14.23;;;8.07;;
58338;SDS011;68636;52.704;6.536;2023-06-22T13:40:49;15.83;;;8.10;;
58338;SDS011;68636;52.704;6.536;2023-06-22T13:43:15;10.35;;;7.50;;
58338;SDS011;68636;52.704;6.536;2023-06-22T13:45:41;12.07;;;8.13;;
58338;SDS011;68636;52.704;6.536;2023-06-22T13:48:07;12.90;;;7.68;;
58338;SDS011;68636;52.704;6.536;2023-06-22T13:50:33;11.25;;;8.02;;
58338;SDS011;68636;52.704;6.536;2023-06-22T13:52:58;13.00;;;8.13;;
58338;SDS011;68636;52.704;6.536;2023-06-22T13:55:24;11.25;;;7.68;;
58338;SDS011;68636;52.704;6.536;2023-06-22T13:57:51;17.27;;;8.05;;
58338;SDS011;68636;52.704;6.536;2023-06-22T14:00:17;11.50;;;8.02;;
58338;SDS011;68636;52.704;6.536;2023-06-22T14:02:43;10.07;;;7.35;;
58338;SDS011;68636;52.704;6.536;2023-06-22T14:05:09;14.15;;;7.63;;
58338;SDS011;68636;52.704;6.536;2023-06-22T14:07:36;9.32;;;7.20;;
58338;SDS011;68636;52.704;6.536;2023-06-22T14:10:03;12.25;;;7.97;;
58338;SDS011;68636;52.704;6.536;2023-06-22T14:14:54;11.23;;;6.43;;
58338;SDS011;68636;52.704;6.536;2023-06-22T14:17:20;11.80;;;6.87;;
58338;SDS011;68636;52.704;6.536;2023-06-22T14:19:51;12.98;;;6.60;;
58338;SDS011;68636;52.704;6.536;2023-06-22T14:22:20;10.60;;;6.50;;
58338;SDS011;68636;52.704;6.536;2023-06-22T14:24:47;9.43;;;6.32;;
58338;SDS011;68636;52.704;6.536;2023-06-22T14:27:13;12.18;;;6.88;;
58338;SDS011;68636;52.704;6.536;2023-06-22T14:29:38;12.73;;;7.13;;
58338;SDS011;68636;52.704;6.536;2023-06-22T14:32:04;12.17;;;7.07;;
58338;SDS011;68636;52.704;6.536;2023-06-22T14:34:31;12.02;;;7.13;;
58338;SDS011;68636;52.704;6.536;2023-06-22T14:37:00;14.65;;;8.05;;
58338;SDS011;68636;52.704;6.536;2023-06-22T14:39:30;17.10;;;7.90;;
58338;SDS011;68636;52.704;6.536;2023-06-22T14:41:56;15.70;;;8.60;;
58338;SDS011;68636;52.704;6.536;2023-06-22T14:44:22;11.70;;;8.90;;
58338;SDS011;68636;52.704;6.536;2023-06-22T14:46:48;13.93;;;8.60;;
58338;SDS011;68636;52.704;6.536;2023-06-22T14:49:13;13.63;;;8.90;;
58338;SDS011;68636;52.704;6.536;2023-06-22T14:51:39;15.73;;;9.73;;
58338;SDS011;68636;52.704;6.536;2023-06-22T14:54:05;13.97;;;10.00;;
58338;SDS011;68636;52.704;6.536;2023-06-22T14:56:31;16.55;;;11.63;;
58338;SDS011;68636;52.704;6.536;2023-06-22T14:58:56;17.17;;;12.33;;
58338;SDS011;68636;52.704;6.536;2023-06-22T15:01:22;15.83;;;11.47;;
58338;SDS011;68636;52.704;6.536;2023-06-22T15:03:48;18.13;;;13.43;;
58338;SDS011;68636;52.704;6.536;2023-06-22T15:06:13;18.07;;;12.97;;
58338;SDS011;68636;52.704;6.536;2023-06-22T15:08:40;18.35;;;13.88;;
58338;SDS011;68636;52.704;6.536;2023-06-22T15:11:06;20.08;;;13.75;;